Time;durP1;ratioP1;P1;durP2;ratioP2;P2;SDS_P1;SDS_P2;PMS_P1;PMS_P2;Temp;Humidity;BMP_temperature;BMP_pressure;BME280_temperature;BME280_humidity;BME280_pressure;Samples;Min_cycle;Max_cycle;Signal;HPM_P1;HPM_P2
2024/03/12 00:02:16;;;;;;;;;;;;;;;;;;5074885;28;19916;-72
2024/03/12 00:04:42;;;;;;;;;;;;;;;;;;5074387;28;19908;-71
2024/03/12 00:07:08;;;;;;;;;;;;;;;;;;5074768;28;19908;-71
2024/03/12 00:09:34;;;;;;;;;;;;;;;;;;5107609;28;19908;-72
2024/03/12 00:12:00;;;;;;;;;;;;;;;;;;5074260;28;19914;-71
2024/03/12 00:14:26;;;;;;;;;;;;;;;;;;5074669;28;19912;-72
2024/03/12 00:16:52;;;;;;;;;;;;;;;;;;5073971;28;19973;-71
2024/03/12 00:19:18;;;;;;;;;;;;;;;;;;5074578;28;19909;-71
2024/03/12 00:21:45;;;;;;;;;;;;;;;;;;5074506;28;20322;-71
2024/03/12 00:24:12;;;;;;;;;;;;;;;;;;5074079;28;19909;-71
2024/03/12 00:26:38;;;;;;;;;;;;;;;;;;5074408;28;20007;-71
2024/03/12 00:29:04;;;;;;;;;;;;;;;;;;5074430;28;19948;-71
2024/03/12 00:31:31;;;;;;;;;;;;;;;;;;5106557;28;19963;-71
2024/03/12 00:34:00;;;;;;;;;;;;;;;;;;5074347;28;19913;-71
2024/03/12 00:36:26;;;;;;;;;;;;;;;;;;5074285;28;19917;-71
2024/03/12 00:38:52;;;;;;;;;;;;;;;;;;5073852;28;20226;-73
2024/03/12 00:41:20;;;;;;;;;;;;;;;;;;5074237;28;20279;-71
2024/03/12 00:43:46;;;;;;;;;;;;;;;;;;5074492;28;20387;-71
2024/03/12 00:46:12;;;;;;;;;;;;;;;;;;5073836;28;20005;-71
2024/03/12 00:48:38;;;;;;;;;;;;;;;;;;5074140;28;19955;-71
2024/03/12 00:51:04;;;;;;;;;;;;;;;;;;5106662;28;19909;-71
2024/03/12 00:53:30;;;;;;;;;;;;;;;;;;5106236;28;19931;-71
2024/03/12 00:55:56;;;;;;;;;;;;;;;;;;5073904;28;19912;-72
2024/03/12 00:58:23;;;;;;;;;;;;;;;;;;5073969;28;20007;-71
2024/03/12 01:00:49;;;;;;;;;;;;;;;;;;5073586;28;19908;-72
2024/03/12 01:03:17;;;;;;;;;;;;;;;;;;5073883;28;19955;-72
2024/03/12 01:05:43;;;;;;;;;;;;;;;;;;5073960;28;19915;-71
2024/03/12 01:08:11;;;;;;;;;;;;;;;;;;5073462;28;19940;-71
2024/03/12 01:10:38;;;;;;;;;;;;;;;;;;5073766;28;19909;-71
2024/03/12 01:13:08;;;;;;;;;;;;;;;;;;5073475;28;19923;-72
2024/03/12 01:15:34;;;;;;;;;;;;;;;;;;5105960;28;20336;-71
2024/03/12 01:18:00;;;;;;;;;;;;;;;;;;5073898;28;19908;-71
2024/03/12 01:20:26;;;;;;;;;;;;;;;;;;5073509;28;19967;-71
2024/03/12 01:22:53;;;;;;;;;;;;;;;;;;5073684;28;19908;-71
2024/03/12 01:25:21;;;;;;;;;;;;;;;;;;5074320;28;19915;-71
2024/03/12 01:27:47;;;;;;;;;;;;;;;;;;5073276;28;19916;-71
2024/03/12 01:30:20;;;;;;;;;;;;;;;;;;5073657;28;19916;-72
2024/03/12 01:32:46;;;;;;;;;;;;;;;;;;5106179;28;20435;-72
2024/03/12 01:35:15;;;;;;;;;;;;;;;;;;5073234;28;19962;-71
2024/03/12 01:37:41;;;;;;;;;;;;;;;;;;5073586;28;20000;-72
2024/03/12 01:40:19;;;;;;;;;;;;;;;;;;5073659;28;19966;-71
2024/03/12 01:42:45;;;;;;;;;;;;;;;;;;5073207;28;19909;-71
2024/03/12 01:45:11;;;;;;;;;;;;;;;;;;5073647;28;20374;-71
2024/03/12 01:47:37;;;;;;;;;;;;;;;;;;5073522;28;20395;-71
2024/03/12 01:50:03;;;;;;;;;;;;;;;;;;5073221;28;19912;-71
2024/03/12 01:52:29;;;;;;;;;;;;;;;;;;5073490;28;20283;-71
2024/03/12 01:54:55;;;;;;;;;;;;;;;;;;5073377;28;20272;-71
2024/03/12 01:57:21;;;;;;;;;;;;;;;;;;5105426;28;19916;-71
2024/03/12 01:59:47;;;;;;;;;;;;;;;;;;5073367;28;20003;-71
2024/03/12 02:02:13;;;;;;;;;;;;;;;;;;5105496;28;19915;-71
2024/03/12 02:04:39;;;;;;;;;;;;;;;;;;5073308;28;19909;-72
2024/03/12 02:07:05;;;;;;;;;;;;;;;;;;5073348;28;19909;-71
2024/03/12 02:09:31;;;;;;;;;;;;;;;;;;5072898;28;19913;-71
2024/03/12 02:11:57;;;;;;;;;;;;;;;;;;5073294;28;19920;-71
2024/03/12 02:14:22;;;;;;;;;;;;;;;;;;5105834;28;19908;-72
2024/03/12 02:16:50;;;;;;;;;;;;;;;;;;5072585;28;19920;-71
2024/03/12 02:19:18;;;;;;;;;;;;;;;;;;5073253;28;19913;-71
2024/03/12 02:21:44;;;;;;;;;;;;;;;;;;5105779;28;19916;-71
2024/03/12 02:24:09;;;;;;;;;;;;;;;;;;5075140;28;20307;-71
2024/03/12 02:26:35;;;;;;;;;;;;;;;;;;5077080;28;20249;-72
2024/03/12 02:29:01;;;;;;;;;;;;;;;;;;5077188;28;20280;-71
2024/03/12 02:31:27;;;;;;;;;;;;;;;;;;5076328;28;20287;-71
2024/03/12 02:33:54;;;;;;;;;;;;;;;;;;5076646;28;19909;-71
2024/03/12 02:36:20;;;;;;;;;;;;;;;;;;5076698;28;19961;-71
2024/03/12 02:38:46;;;;;;;;;;;;;;;;;;5076115;28;19916;-72
2024/03/12 02:41:12;;;;;;;;;;;;;;;;;;5076500;28;19909;-71
2024/03/12 02:43:38;;;;;;;;;;;;;;;;;;5076488;28;19916;-71
2024/03/12 02:46:04;;;;;;;;;;;;;;;;;;5075986;28;19987;-71
2024/03/12 02:48:30;;;;;;;;;;;;;;;;;;5076341;28;19908;-71
2024/03/12 02:50:56;;;;;;;;;;;;;;;;;;5109034;28;19909;-71
2024/03/12 02:53:22;;;;;;;;;;;;;;;;;;5075860;28;19954;-71
2024/03/12 02:55:48;;;;;;;;;;;;;;;;;;5076355;28;19917;-71
2024/03/12 02:58:15;;;;;;;;;;;;;;;;;;5076182;28;19909;-71
2024/03/12 03:00:43;;;;;;;;;;;;;;;;;;5075757;28;19909;-73
2024/03/12 03:03:09;;;;;;;;;;;;;;;;;;5076339;28;20402;-72
2024/03/12 03:05:35;;;;;;;;;;;;;;;;;;5075616;28;19909;-72
2024/03/12 03:08:01;;;;;;;;;;;;;;;;;;5108576;28;20340;-71
2024/03/12 03:10:27;;;;;;;;;;;;;;;;;;5076054;28;20002;-72
2024/03/12 03:12:53;;;;;;;;;;;;;;;;;;5075643;28;19908;-72
2024/03/12 03:15:20;;;;;;;;;;;;;;;;;;5108245;28;20002;-73
2024/03/12 03:17:48;;;;;;;;;;;;;;;;;;5075942;28;19912;-72
2024/03/12 03:20:15;;;;;;;;;;;;;;;;;;5108094;28;20379;-72
2024/03/12 03:22:41;;;;;;;;;;;;;;;;;;5075826;28;20293;-72
2024/03/12 03:25:07;;;;;;;;;;;;;;;;;;5075638;28;19912;-72
2024/03/12 03:27:33;;;;;;;;;;;;;;;;;;5075280;28;19908;-72
2024/03/12 03:29:59;;;;;;;;;;;;;;;;;;5075616;28;19908;-72
2024/03/12 03:32:25;;;;;;;;;;;;;;;;;;5075584;28;19909;-70
2024/03/12 03:34:52;;;;;;;;;;;;;;;;;;5075086;28;20425;-72
2024/03/12 03:37:18;;;;;;;;;;;;;;;;;;5075953;28;19916;-70
2024/03/12 03:39:44;;;;;;;;;;;;;;;;;;5075401;28;19908;-71
2024/03/12 03:42:10;;;;;;;;;;;;;;;;;;5074882;28;19908;-71
2024/03/12 03:44:36;;;;;;;;;;;;;;;;;;5075275;28;19908;-71
2024/03/12 03:47:02;;;;;;;;;;;;;;;;;;5075197;28;19908;-71
2024/03/12 03:49:28;;;;;;;;;;;;;;;;;;5074790;28;19908;-70
2024/03/12 03:51:54;;;;;;;;;;;;;;;;;;5075134;28;19915;-70
2024/03/12 03:54:20;;;;;;;;;;;;;;;;;;5075159;28;19950;-70
2024/03/12 03:56:47;;;;;;;;;;;;;;;;;;5074521;28;19923;-71
2024/03/12 03:59:16;;;;;;;;;;;;;;;;;;5107615;28;19919;-70
2024/03/12 04:01:42;;;;;;;;;;;;;;;;;;5074503;28;19916;-71
2024/03/12 04:04:12;;;;;;;;;;;;;;;;;;5074865;28;20291;-71
2024/03/12 04:06:38;;;;;;;;;;;;;;;;;;5074991;28;19948;-71
2024/03/12 04:09:08;;;;;;;;;;;;;;;;;;5074545;28;20376;-71
2024/03/12 04:11:34;;;;;;;;;;;;;;;;;;5074728;28;20257;-71
2024/03/12 04:13:59;;;;;;;;;;;;;;;;;;5074954;28;19990;-72
2024/03/12 04:16:25;;;;;;;;;;;;;;;;;;5074019;28;19920;-73
2024/03/12 04:18:51;;;;;;;;;;;;;;;;;;5074590;28;19995;-71
2024/03/12 04:21:17;;;;;;;;;;;;;;;;;;5074489;28;19916;-71
2024/03/12 04:23:44;;;;;;;;;;;;;;;;;;5106696;28;19916;-71
2024/03/12 04:26:10;;;;;;;;;;;;;;;;;;5074439;28;19954;-72
2024/03/12 04:28:37;;;;;;;;;;;;;;;;;;5074420;28;19909;-71
2024/03/12 04:31:06;;;;;;;;;;;;;;;;;;5106672;28;19912;-71
2024/03/12 04:33:34;;;;;;;;;;;;;;;;;;5074342;28;19943;-72
2024/03/12 04:36:00;;;;;;;;;;;;;;;;;;5106781;28;19923;-72
2024/03/12 04:38:26;;;;;;;;;;;;;;;;;;5073859;28;19913;-72
2024/03/12 04:40:52;;;;;;;;;;;;;;;;;;5106890;28;19908;-72
2024/03/12 04:43:18;;;;;;;;;;;;;;;;;;5074243;28;19915;-72
2024/03/12 04:45:44;;;;;;;;;;;;;;;;;;5073360;28;19915;-72
2024/03/12 04:48:11;;;;;;;;;;;;;;;;;;5074146;28;19912;-72
2024/03/12 04:50:37;;;;;;;;;;;;;;;;;;5074187;28;19908;-72
2024/03/12 04:53:03;;;;;;;;;;;;;;;;;;5106251;28;19965;-72
2024/03/12 04:55:29;;;;;;;;;;;;;;;;;;5073980;28;20003;-72
2024/03/12 04:57:55;;;;;;;;;;;;;;;;;;5106564;28;19912;-72
2024/03/12 05:00:21;;;;;;;;;;;;;;;;;;5073746;28;19962;-72
2024/03/12 05:02:47;;;;;;;;;;;;;;;;;;5073913;28;19944;-72
2024/03/12 05:05:23;;;;;;;;;;;;;;;;;;5073509;28;19915;-72
2024/03/12 05:07:49;;;;;;;;;;;;;;;;;;5073761;28;19909;-72
2024/03/12 05:10:16;;;;;;;;;;;;;;;;;;5073854;28;20062;-72
2024/03/12 05:12:41;;;;;;;;;;;;;;;;;;5073523;28;19932;-72
2024/03/12 05:15:09;;;;;;;;;;;;;;;;;;5074002;28;20372;-72
2024/03/12 05:17:34;;;;;;;;;;;;;;;;;;5074249;28;20127;-72
2024/03/12 05:20:00;;;;;;;;;;;;;;;;;;5073411;28;20006;-71
2024/03/12 05:22:26;;;;;;;;;;;;;;;;;;5073678;28;19917;-72
2024/03/12 05:24:52;;;;;;;;;;;;;;;;;;5071014;28;19915;-71
2024/03/12 05:27:25;;;;;;;;;;;;;;;;;;5053393;28;20011;-72
2024/03/12 05:29:54;;;;;;;;;;;;;;;;;;5052991;28;20427;-72
2024/03/12 05:32:21;;;;;;;;;;;;;;;;;;5053104;28;20018;-72
2024/03/12 05:34:47;;;;;;;;;;;;;;;;;;5051236;28;19912;-72
2024/03/12 05:37:28;;;;;;;;;;;;;;;;;;5052321;28;19916;-71
2024/03/12 05:40:10;;;;;;;;;;;;;;;;;;5053211;28;19962;-72
2024/03/12 05:48:09;;;;;;;;;;;;;;;;;;5051368;28;19958;-72
2024/03/12 05:50:35;;;;;;;;;;;;;;;;;;5052019;28;19916;-71
2024/03/12 05:53:01;;;;;;;;;;;;;;;;;;5052554;28;19908;-71
2024/03/12 05:55:27;;;;;;;;;;;;;;;;;;5052102;28;19909;-71
2024/03/12 05:57:53;;;;;;;;;;;;;;;;;;5051512;28;20336;-71
2024/03/12 06:00:19;;;;;;;;;;;;;;;;;;5056457;28;20288;-71
2024/03/12 06:02:45;;;;;;;;;;;;;;;;;;5055103;28;19940;-70
2024/03/12 06:05:12;;;;;;;;;;;;;;;;;;5057145;28;20004;-71
2024/03/12 06:07:38;;;;;;;;;;;;;;;;;;5057106;28;19961;-71
2024/03/12 06:10:04;;;;;;;;;;;;;;;;;;5056638;28;20007;-71
2024/03/12 06:12:31;;;;;;;;;;;;;;;;;;5056956;28;19909;-71
2024/03/12 06:14:58;;;;;;;;;;;;;;;;;;5056681;28;19919;-73
2024/03/12 06:17:25;;;;;;;;;;;;;;;;;;5056709;28;20210;-71
2024/03/12 06:19:51;;;;;;;;;;;;;;;;;;5073895;28;20249;-69
2024/03/12 06:22:17;;;;;;;;;;;;;;;;;;5062340;28;19926;-69
2024/03/12 06:24:43;;;;;;;;;;;;;;;;;;5048891;28;19953;-71
2024/03/12 06:27:09;;;;;;;;;;;;;;;;;;5052226;28;19967;-71
2024/03/12 06:29:36;;;;;;;;;;;;;;;;;;5081471;28;19971;-72
2024/03/12 06:32:02;;;;;;;;;;;;;;;;;;5039934;28;19913;-72
2024/03/12 06:34:28;;;;;;;;;;;;;;;;;;5046171;28;19928;-69
2024/03/12 06:36:57;;;;;;;;;;;;;;;;;;5054058;28;19925;-70
2024/03/12 06:39:23;;;;;;;;;;;;;;;;;;5042665;28;20623;-69
2024/03/12 06:41:49;;;;;;;;;;;;;;;;;;5063123;28;19916;-69
2024/03/12 06:44:17;;;;;;;;;;;;;;;;;;5070672;28;20458;-69
2024/03/12 06:46:46;;;;;;;;;;;;;;;;;;5049445;28;20365;-69
2024/03/12 06:49:12;;;;;;;;;;;;;;;;;;5085452;28;19912;-69
2024/03/12 06:51:38;;;;;;;;;;;;;;;;;;5064480;28;20058;-68
2024/03/12 06:54:04;;;;;;;;;;;;;;;;;;5068694;28;20448;-70
2024/03/12 06:56:31;;;;;;;;;;;;;;;;;;5053741;28;19921;-71
2024/03/12 06:58:57;;;;;;;;;;;;;;;;;;5060990;28;19955;-70
2024/03/12 07:01:27;;;;;;;;;;;;;;;;;;5056632;28;19963;-72
2024/03/12 07:03:57;;;;;;;;;;;;;;;;;;5053862;28;19909;-72
2024/03/12 07:06:24;;;;;;;;;;;;;;;;;;5054794;28;20373;-72
2024/03/12 07:08:50;;;;;;;;;;;;;;;;;;5065144;28;20003;-70
2024/03/12 07:11:19;;;;;;;;;;;;;;;;;;5079646;28;19932;-72
2024/03/12 07:13:48;;;;;;;;;;;;;;;;;;5044863;28;19916;-71
2024/03/12 07:16:14;;;;;;;;;;;;;;;;;;5099080;28;19925;-71
2024/03/12 07:18:40;;;;;;;;;;;;;;;;;;5070662;28;19919;-70
2024/03/12 07:21:06;;;;;;;;;;;;;;;;;;5066429;28;19917;-70
2024/03/12 07:23:32;;;;;;;;;;;;;;;;;;5063128;28;19913;-71
2024/03/12 07:25:58;;;;;;;;;;;;;;;;;;5069768;28;19917;-70
2024/03/12 07:28:26;;;;;;;;;;;;;;;;;;5072453;28;20360;-70
2024/03/12 07:30:52;;;;;;;;;;;;;;;;;;5066028;28;19941;-70
2024/03/12 07:33:18;;;;;;;;;;;;;;;;;;5053817;28;19919;-71
2024/03/12 07:35:44;;;;;;;;;;;;;;;;;;5053643;28;20041;-68
2024/03/12 07:38:10;;;;;;;;;;;;;;;;;;5106291;28;19916;-68
2024/03/12 07:40:38;;;;;;;;;;;;;;;;;;5073492;28;19912;-68
2024/03/12 07:43:04;;;;;;;;;;;;;;;;;;5089525;28;19919;-70
2024/03/12 07:45:30;;;;;;;;;;;;;;;;;;5066946;28;19919;-70
2024/03/12 07:47:56;;;;;;;;;;;;;;;;;;5055481;28;19927;-69
2024/03/12 07:50:22;;;;;;;;;;;;;;;;;;5053659;28;20000;-70
2024/03/12 07:52:48;;;;;;;;;;;;;;;;;;5085364;28;20023;-70
2024/03/12 07:55:14;;;;;;;;;;;;;;;;;;5043109;28;20431;-74
2024/03/12 07:57:40;;;;;;;;;;;;;;;;;;5035410;28;19967;-70
2024/03/12 08:00:14;;;;;;;;;;;;;;;;;;5047088;28;19916;-72
2024/03/12 08:02:40;;;;;;;;;;;;;;;;;;5031817;28;19924;-74
2024/03/12 08:05:06;;;;;;;;;;;;;;;;;;5080298;28;19916;-69
2024/03/12 08:07:35;;;;;;;;;;;;;;;;;;5070483;28;19919;-69
2024/03/12 08:10:01;;;;;;;;;;;;;;;;;;5052027;28;20438;-70
2024/03/12 08:12:27;;;;;;;;;;;;;;;;;;5063458;28;19966;-69
2024/03/12 08:14:53;;;;;;;;;;;;;;;;;;5069925;28;19916;-68
2024/03/12 08:17:19;;;;;;;;;;;;;;;;;;5061164;28;19920;-68
2024/03/12 08:19:48;;;;;;;;;;;;;;;;;;5062874;28;19948;-69
2024/03/12 08:22:14;;;;;;;;;;;;;;;;;;5058935;28;19975;-69
2024/03/12 08:24:40;;;;;;;;;;;;;;;;;;5064828;28;19956;-69
2024/03/12 08:27:06;;;;;;;;;;;;;;;;;;5050628;28;19935;-69
2024/03/12 08:29:32;;;;;;;;;;;;;;;;;;5050498;28;20007;-69
2024/03/12 08:31:58;;;;;;;;;;;;;;;;;;5064316;28;20004;-69
2024/03/12 08:34:24;;;;;;;;;;;;;;;;;;5095156;28;19939;-72
2024/03/12 08:36:50;;;;;;;;;;;;;;;;;;5049538;28;19921;-69
2024/03/12 08:39:17;;;;;;;;;;;;;;;;;;5058533;28;20384;-69
2024/03/12 08:41:43;;;;;;;;;;;;;;;;;;5048311;28;19912;-70
2024/03/12 08:44:09;;;;;;;;;;;;;;;;;;5048127;28;19909;-70
2024/03/12 08:46:35;;;;;;;;;;;;;;;;;;5042995;28;19948;-70
2024/03/12 08:49:01;;;;;;;;;;;;;;;;;;5044406;28;20002;-69
2024/03/12 08:51:33;;;;;;;;;;;;;;;;;;5061412;28;20305;-70
2024/03/12 08:54:01;;;;;;;;;;;;;;;;;;5046487;28;19920;-70
2024/03/12 08:56:29;;;;;;;;;;;;;;;;;;5047751;28;19932;-70
2024/03/12 08:58:57;;;;;;;;;;;;;;;;;;5048731;28;20346;-68
2024/03/12 09:01:23;;;;;;;;;;;;;;;;;;5050497;28;19916;-69
2024/03/12 09:03:49;;;;;;;;;;;;;;;;;;5044774;28;19913;-70
2024/03/12 09:06:16;;;;;;;;;;;;;;;;;;5059152;28;19909;-71
2024/03/12 09:08:43;;;;;;;;;;;;;;;;;;5040699;28;19951;-69
2024/03/12 09:11:15;;;;;;;;;;;;;;;;;;5036975;28;19913;-70
2024/03/12 09:13:42;;;;;;;;;;;;;;;;;;5029564;28;19916;-70
2024/03/12 09:16:10;;;;;;;;;;;;;;;;;;5035565;28;20004;-69
2024/03/12 09:18:36;;;;;;;;;;;;;;;;;;5049625;28;20284;-69
2024/03/12 09:21:04;;;;;;;;;;;;;;;;;;5055307;28;19912;-69
2024/03/12 09:23:30;;;;;;;;;;;;;;;;;;5045049;28;19921;-70
2024/03/12 09:25:57;;;;;;;;;;;;;;;;;;5035865;28;19921;-69
2024/03/12 09:28:23;;;;;;;;;;;;;;;;;;5061758;28;20285;-69
2024/03/12 09:30:50;;;;;;;;;;;;;;;;;;5055741;28;19924;-69
2024/03/12 09:33:17;;;;;;;;;;;;;;;;;;5067496;28;19938;-71
2024/03/12 09:35:44;;;;;;;;;;;;;;;;;;5069045;28;19952;-70
2024/03/12 09:38:11;;;;;;;;;;;;;;;;;;5056535;28;19936;-69
2024/03/12 09:40:42;;;;;;;;;;;;;;;;;;5056769;28;20015;-69
2024/03/12 09:43:09;;;;;;;;;;;;;;;;;;5049127;28;19974;-69
2024/03/12 09:45:35;;;;;;;;;;;;;;;;;;5059525;28;19965;-69
2024/03/12 09:48:02;;;;;;;;;;;;;;;;;;5072555;28;20407;-69
2024/03/12 09:50:29;;;;;;;;;;;;;;;;;;5065240;28;19920;-69
2024/03/12 09:52:55;;;;;;;;;;;;;;;;;;5055739;28;19909;-72
2024/03/12 09:55:24;;;;;;;;;;;;;;;;;;5055218;28;20025;-72
2024/03/12 09:57:52;;;;;;;;;;;;;;;;;;5071536;28;20011;-72
2024/03/12 10:00:27;;;;;;;;;;;;;;;;;;5061587;28;20443;-72
2024/03/12 10:02:55;;;;;;;;;;;;;;;;;;5054883;28;19909;-72
2024/03/12 10:05:21;;;;;;;;;;;;;;;;;;5054260;28;19934;-69
2024/03/12 10:09:43;;;;;;;;;;;;;;;;;;5121706;27;19918;-69
2024/03/12 10:12:09;;;;;;;;;;;;;;;;;;5088781;28;19912;-68
2024/03/12 10:14:37;;;;;;;;;;;;;;;;;;5087577;28;19995;-67
2024/03/12 10:17:04;;;;;;;;;;;;;;;;;;5085794;28;20217;-70
2024/03/12 10:19:30;;;;;;;;;;;;;;;;;;5088420;28;20003;-70
2024/03/12 10:24:13;;;;;;;;;;;;;;;;;;5079779;27;19919;-70
2024/03/12 10:26:39;;;;;;;;;;;;;;;;;;5048744;28;19913;-70
2024/03/12 10:29:07;;;;;;;;;;;;;;;;;;5036352;28;20071;-69
2024/03/12 10:32:28;;;;;;;;;;;;;;;;;;5136585;27;19930;-70
2024/03/12 10:35:44;;;;;;;;;;;;;;;;;;4952525;27;5216791;-70
2024/03/12 10:39:41;;;;;;;;;;;;;;;;;;4926987;27;5727885;-70
2024/03/12 10:42:11;;;;;;;;;;;;;;;;;;5144890;27;20007;-69
2024/03/12 10:46:14;;;;;;;;;;;;;;;;;;4875870;27;6922651;-70
2024/03/12 10:48:41;;;;;;;;;;;;;;;;;;5118660;28;19963;-70
2024/03/12 10:53:50;;;;;;;;;;;;;;;;;;5093623;27;19928;-69
2024/03/12 10:56:16;;;;;;;;;;;;;;;;;;5070869;28;19920;-69
2024/03/12 10:58:44;;;;;;;;;;;;;;;;;;5066369;28;19913;-67
2024/03/12 11:02:35;;;;;;;;;;;;;;;;;;5144655;27;19971;-68
2024/03/12 11:05:02;;;;;;;;;;;;;;;;;;5137217;27;19911;-68
2024/03/12 11:07:29;;;;;;;;;;;;;;;;;;5131638;27;19907;-69
2024/03/12 11:09:55;;;;;;;;;;;;;;;;;;5149726;27;19907;-68
2024/03/12 11:12:21;;;;;;;;;;;;;;;;;;5144946;27;19920;-70
2024/03/12 11:16:54;;;;;;;;;;;;;;;;;;5112220;27;19920;-68
2024/03/12 11:20:39;;;;;;;;;;;;;;;;;;5121267;27;20291;-68
2024/03/12 11:23:06;;;;;;;;;;;;;;;;;;5089136;28;19935;-68
2024/03/12 11:25:32;;;;;;;;;;;;;;;;;;5091883;28;19962;-67
2024/03/12 11:28:01;;;;;;;;;;;;;;;;;;5086882;28;19913;-68
2024/03/12 11:30:27;;;;;;;;;;;;;;;;;;5081513;28;21738;-69
2024/03/12 11:32:53;;;;;;;;;;;;;;;;;;5074646;28;20397;-68
2024/03/12 11:35:23;;;;;;;;;;;;;;;;;;5087644;28;19912;-69
2024/03/12 11:37:50;;;;;;;;;;;;;;;;;;5088199;28;19917;-68
2024/03/12 11:40:16;;;;;;;;;;;;;;;;;;5087073;28;19921;-68
2024/03/12 11:43:46;;;;;;;;;;;;;;;;;;5120765;27;19923;-69
2024/03/12 11:46:13;;;;;;;;;;;;;;;;;;5095133;28;19919;-70
2024/03/12 11:49:19;;;;;;;;;;;;;;;;;;5092812;27;20377;-68
2024/03/12 11:51:49;;;;;;;;;;;;;;;;;;5065682;28;20345;-68
2024/03/12 11:54:15;;;;;;;;;;;;;;;;;;5052731;28;19912;-70
2024/03/12 11:56:41;;;;;;;;;;;;;;;;;;5036017;28;19924;-68
2024/03/12 11:59:07;;;;;;;;;;;;;;;;;;5033020;28;19964;-69
2024/03/12 12:01:34;;;;;;;;;;;;;;;;;;5036117;28;20329;-70
2024/03/12 12:07:28;;;;;;;;;;;;;;;;;;5157158;27;20010;-67
2024/03/12 12:11:42;;;;;;;;;;;;;;;;;;5118783;27;20268;-67
2024/03/12 12:14:08;;;;;;;;;;;;;;;;;;5082626;28;19913;-71
2024/03/12 12:17:43;;;;;;;;;;;;;;;;;;5099666;27;19916;-69
2024/03/12 12:22:32;;;;;;;;;;;;;;;;;;5076701;27;19917;-69
2024/03/12 12:24:58;;;;;;;;;;;;;;;;;;5045364;28;19917;-69
2024/03/12 12:27:24;;;;;;;;;;;;;;;;;;5047740;28;19971;-70
2024/03/12 12:29:51;;;;;;;;;;;;;;;;;;5048194;28;19913;-70
2024/03/12 12:32:17;;;;;;;;;;;;;;;;;;5048348;28;19913;-70
2024/03/12 12:36:31;;;;;;;;;;;;;;;;;;5089064;27;19924;-71
2024/03/12 12:40:47;;;;;;;;;;;;;;;;;;5153422;27;19959;-68
2024/03/12 12:46:31;;;;;;;;;;;;;;;;;;5102194;27;19920;-71
2024/03/12 12:51:29;;;;;;;;;;;;;;;;;;5100714;27;19924;-69
2024/03/12 12:55:37;;;;;;;;;;;;;;;;;;5090338;27;20336;-70
2024/03/12 12:58:32;;;;;;;;;;;;;;;;;;5100895;27;20303;-69
2024/03/12 13:01:42;;;;;;;;;;;;;;;;;;5094905;27;19923;-70
2024/03/12 13:07:10;;;;;;;;;;;;;;;;;;5094863;27;19917;-68
2024/03/12 13:09:36;;;;;;;;;;;;;;;;;;5053404;28;20548;-69
2024/03/12 13:12:03;;;;;;;;;;;;;;;;;;5065801;28;19964;-70
2024/03/12 13:14:29;;;;;;;;;;;;;;;;;;5034943;28;19913;-68
2024/03/12 13:16:58;;;;;;;;;;;;;;;;;;5040305;28;19939;-71
2024/03/12 13:19:46;;;;;;;;;;;;;;;;;;5127550;27;19940;-70
2024/03/12 13:24:46;;;;;;;;;;;;;;;;;;5093727;27;19944;-69
2024/03/12 13:27:13;;;;;;;;;;;;;;;;;;5057406;28;19921;-68
2024/03/12 13:29:43;;;;;;;;;;;;;;;;;;5063595;28;19974;-70
2024/03/12 13:32:10;;;;;;;;;;;;;;;;;;5050557;28;19913;-70
2024/03/12 13:34:36;;;;;;;;;;;;;;;;;;5058659;28;19917;-71
2024/03/12 13:37:49;;;;;;;;;;;;;;;;;;5081672;27;19914;-69
2024/03/12 13:44:48;;;;;;;;;;;;;;;;;;5096224;27;19917;-69
2024/03/12 13:51:09;;;;;;;;;;;;;;;;;;5112361;27;19916;-69
2024/03/12 13:55:56;;;;;;;;;;;;;;;;;;5092008;27;20289;-69
2024/03/12 13:58:22;;;;;;;;;;;;;;;;;;5049769;28;20349;-68
2024/03/12 14:01:40;;;;;;;;;;;;;;;;;;5095707;28;19970;-68
2024/03/12 14:04:06;;;;;;;;;;;;;;;;;;5104166;28;19972;-71
2024/03/12 14:08:31;;;;;;;;;;;;;;;;;;5091810;27;19921;-67
2024/03/12 14:11:53;;;;;;;;;;;;;;;;;;5101480;27;20373;-68
2024/03/12 14:14:20;;;;;;;;;;;;;;;;;;5059141;28;19913;-69
2024/03/12 14:18:05;;;;;;;;;;;;;;;;;;5102116;27;19921;-68
2024/03/12 14:20:30;;;;;;;;;;;;;;;;;;5051498;28;19920;-69
2024/03/12 14:24:17;;;;;;;;;;;;;;;;;;5100120;27;20280;-70
2024/03/12 14:29:26;;;;;;;;;;;;;;;;;;5091710;27;19917;-72
2024/03/12 14:31:52;;;;;;;;;;;;;;;;;;5049416;28;20380;-71
2024/03/12 14:34:18;;;;;;;;;;;;;;;;;;5082396;28;19970;-70
2024/03/12 14:36:45;;;;;;;;;;;;;;;;;;5049491;28;19909;-72
2024/03/12 14:39:12;;;;;;;;;;;;;;;;;;5051884;28;19920;-72
2024/03/12 14:41:38;;;;;;;;;;;;;;;;;;5065969;28;19974;-69
2024/03/12 14:45:04;;;;;;;;;;;;;;;;;;5082671;27;20322;-72
2024/03/12 14:47:32;;;;;;;;;;;;;;;;;;5041627;28;19913;-73
2024/03/12 14:49:58;;;;;;;;;;;;;;;;;;5034964;28;19956;-72
2024/03/12 14:56:13;;;;;;;;;;;;;;;;;;5103421;27;19913;-74
2024/03/12 14:58:39;;;;;;;;;;;;;;;;;;5070810;28;19912;-73
2024/03/12 15:01:06;;;;;;;;;;;;;;;;;;5070791;28;19963;-72
2024/03/12 15:03:32;;;;;;;;;;;;;;;;;;5068923;28;19916;-73
2024/03/12 15:07:00;;;;;;;;;;;;;;;;;;5103588;27;19913;-72
2024/03/12 15:09:29;;;;;;;;;;;;;;;;;;5070791;28;20368;-72
2024/03/12 15:11:55;;;;;;;;;;;;;;;;;;5069215;28;19909;-72
2024/03/12 15:14:22;;;;;;;;;;;;;;;;;;5069477;28;19912;-74
2024/03/12 15:16:50;;;;;;;;;;;;;;;;;;5070817;28;19917;-73
2024/03/12 15:19:18;;;;;;;;;;;;;;;;;;5070216;28;19909;-73
2024/03/12 15:21:44;;;;;;;;;;;;;;;;;;5069660;28;19915;-75
2024/03/12 15:25:50;;;;;;;;;;;;;;;;;;5133957;27;19951;-73
2024/03/12 15:29:09;;;;;;;;;;;;;;;;;;5103313;27;19913;-73
2024/03/12 15:32:32;;;;;;;;;;;;;;;;;;5102802;27;20375;-73
2024/03/12 15:34:58;;;;;;;;;;;;;;;;;;5068997;28;19917;-73
2024/03/12 15:37:23;;;;;;;;;;;;;;;;;;5070064;28;19909;-74
2024/03/12 15:44:31;;;;;;;;;;;;;;;;;;5102433;27;19913;-72
2024/03/12 15:46:57;;;;;;;;;;;;;;;;;;5068314;28;20381;-74
2024/03/12 15:49:23;;;;;;;;;;;;;;;;;;5069853;28;19916;-72
2024/03/12 15:54:14;;;;;;;;;;;;;;;;;;5103192;27;19913;-74
2024/03/12 15:56:49;;;;;;;;;;;;;;;;;;5071151;28;19941;-74
2024/03/12 15:59:15;;;;;;;;;;;;;;;;;;5069874;28;20280;-73
2024/03/12 16:01:41;;;;;;;;;;;;;;;;;;5071264;28;19909;-76
2024/03/12 16:04:07;;;;;;;;;;;;;;;;;;5069795;28;20368;-73
2024/03/12 16:06:34;;;;;;;;;;;;;;;;;;5070874;28;20044;-73
2024/03/12 16:09:00;;;;;;;;;;;;;;;;;;5071000;28;19916;-74
2024/03/12 16:11:26;;;;;;;;;;;;;;;;;;5070920;28;19909;-75
2024/03/12 16:13:52;;;;;;;;;;;;;;;;;;5070434;28;20296;-73
2024/03/12 16:16:18;;;;;;;;;;;;;;;;;;5071285;28;19909;-73
2024/03/12 16:18:44;;;;;;;;;;;;;;;;;;5070705;28;19938;-73
2024/03/12 16:21:10;;;;;;;;;;;;;;;;;;5070193;28;19916;-72
2024/03/12 16:23:36;;;;;;;;;;;;;;;;;;5067570;28;19915;-72
2024/03/12 16:26:03;;;;;;;;;;;;;;;;;;5068623;28;19909;-72
2024/03/12 16:28:29;;;;;;;;;;;;;;;;;;5068049;28;19908;-72
2024/03/12 16:30:55;;;;;;;;;;;;;;;;;;5068998;28;19995;-72
2024/03/12 16:33:21;;;;;;;;;;;;;;;;;;5068660;28;19916;-73
2024/03/12 16:35:47;;;;;;;;;;;;;;;;;;5068255;28;20260;-72
2024/03/12 16:38:14;;;;;;;;;;;;;;;;;;5068520;28;19955;-74
2024/03/12 16:40:41;;;;;;;;;;;;;;;;;;5070172;28;19915;-72
2024/03/12 16:43:06;;;;;;;;;;;;;;;;;;5069914;28;19909;-72
2024/03/12 16:45:33;;;;;;;;;;;;;;;;;;5070203;28;19909;-72
2024/03/12 16:48:01;;;;;;;;;;;;;;;;;;5070258;28;19909;-74
2024/03/12 16:50:27;;;;;;;;;;;;;;;;;;5068432;28;19913;-74
2024/03/12 16:52:54;;;;;;;;;;;;;;;;;;5069804;28;20008;-74
2024/03/12 16:55:20;;;;;;;;;;;;;;;;;;5069863;28;19909;-74
2024/03/12 16:57:46;;;;;;;;;;;;;;;;;;5069467;28;19909;-73
2024/03/12 17:00:13;;;;;;;;;;;;;;;;;;5069802;28;19909;-74
2024/03/12 17:02:42;;;;;;;;;;;;;;;;;;5069486;28;20004;-74
2024/03/12 17:05:09;;;;;;;;;;;;;;;;;;5057581;28;19912;-72
2024/03/12 17:07:36;;;;;;;;;;;;;;;;;;5056811;28;20369;-73
2024/03/12 17:10:02;;;;;;;;;;;;;;;;;;5056309;28;20486;-72
2024/03/12 17:12:29;;;;;;;;;;;;;;;;;;5056389;28;19913;-72
2024/03/12 17:14:55;;;;;;;;;;;;;;;;;;5056387;28;19916;-73
2024/03/12 17:17:21;;;;;;;;;;;;;;;;;;5055973;28;19913;-74
2024/03/12 17:19:47;;;;;;;;;;;;;;;;;;5056247;28;19909;-73
2024/03/12 17:22:14;;;;;;;;;;;;;;;;;;5055014;28;20376;-73
2024/03/12 17:24:40;;;;;;;;;;;;;;;;;;5055986;28;19979;-74
2024/03/12 17:27:10;;;;;;;;;;;;;;;;;;5056185;28;20380;-73
2024/03/12 17:29:36;;;;;;;;;;;;;;;;;;5055076;28;20280;-73
2024/03/12 17:32:04;;;;;;;;;;;;;;;;;;5056095;28;20288;-72
2024/03/12 17:34:31;;;;;;;;;;;;;;;;;;5054814;28;19912;-73
2024/03/12 17:36:56;;;;;;;;;;;;;;;;;;5055996;28;19909;-74
2024/03/12 17:39:22;;;;;;;;;;;;;;;;;;5055516;28;19915;-73
2024/03/12 17:41:48;;;;;;;;;;;;;;;;;;5055851;28;19952;-73
2024/03/12 17:44:14;;;;;;;;;;;;;;;;;;5055899;28;19909;-73
2024/03/12 17:46:42;;;;;;;;;;;;;;;;;;5054128;28;19909;-73
2024/03/12 17:49:08;;;;;;;;;;;;;;;;;;5055741;28;19908;-73
2024/03/12 17:51:35;;;;;;;;;;;;;;;;;;5056174;28;19923;-72
2024/03/12 17:54:01;;;;;;;;;;;;;;;;;;5054621;28;19921;-72
2024/03/12 17:56:27;;;;;;;;;;;;;;;;;;5055645;28;19912;-73
2024/03/12 17:58:53;;;;;;;;;;;;;;;;;;5055974;28;19958;-72
2024/03/12 18:01:20;;;;;;;;;;;;;;;;;;5054182;28;19955;-74
2024/03/12 18:03:46;;;;;;;;;;;;;;;;;;5054207;28;19909;-72
2024/03/12 18:06:13;;;;;;;;;;;;;;;;;;5053704;28;19916;-73
2024/03/12 18:08:42;;;;;;;;;;;;;;;;;;5055366;28;20463;-72
2024/03/12 18:11:10;;;;;;;;;;;;;;;;;;5053606;28;19916;-72